sensor_id;sensor_type;location;lat;lon;timestamp;temperature;humidity
77247;SHT35;66279;42.820;23.374;2023-02-28T00:00:32;5.67;89.84
77247;SHT35;66279;42.820;23.374;2023-02-28T00:02:58;5.63;90.10
77247;SHT35;66279;42.820;23.374;2023-02-28T00:05:25;5.63;90.11
77247;SHT35;66279;42.820;23.374;2023-02-28T00:07:51;5.65;89.78
77247;SHT35;66279;42.820;23.374;2023-02-28T00:10:19;5.62;90.03
77247;SHT35;66279;42.820;23.374;2023-02-28T00:12:53;5.65;89.84
77247;SHT35;66279;42.820;23.374;2023-02-28T00:15:19;5.69;89.37
77247;SHT35;66279;42.820;23.374;2023-02-28T00:17:45;5.74;89.14
77247;SHT35;66279;42.820;23.374;2023-02-28T00:20:12;5.80;88.93
77247;SHT35;66279;42.820;23.374;2023-02-28T00:22:44;5.74;89.41
77247;SHT35;66279;42.820;23.374;2023-02-28T00:25:11;5.79;89.70
77247;SHT35;66279;42.820;23.374;2023-02-28T00:27:38;5.83;89.83
77247;SHT35;66279;42.820;23.374;2023-02-28T00:30:05;5.87;89.59
77247;SHT35;66279;42.820;23.374;2023-02-28T00:32:31;5.86;89.28
77247;SHT35;66279;42.820;23.374;2023-02-28T00:34:57;5.86;89.32
77247;SHT35;66279;42.820;23.374;2023-02-28T00:37:22;5.93;88.60
77247;SHT35;66279;42.820;23.374;2023-02-28T00:39:48;5.94;88.56
77247;SHT35;66279;42.820;23.374;2023-02-28T00:42:14;5.93;88.74
77247;SHT35;66279;42.820;23.374;2023-02-28T00:44:39;5.97;88.79
77247;SHT35;66279;42.820;23.374;2023-02-28T00:47:05;5.98;88.12
77247;SHT35;66279;42.820;23.374;2023-02-28T00:49:30;6.07;86.99
77247;SHT35;66279;42.820;23.374;2023-02-28T00:51:56;6.08;86.94
77247;SHT35;66279;42.820;23.374;2023-02-28T00:54:22;6.08;86.83
77247;SHT35;66279;42.820;23.374;2023-02-28T00:56:49;5.96;87.52
77247;SHT35;66279;42.820;23.374;2023-02-28T00:59:16;5.89;87.72
77247;SHT35;66279;42.820;23.374;2023-02-28T01:01:43;5.87;87.99
77247;SHT35;66279;42.820;23.374;2023-02-28T01:04:09;5.87;87.58
77247;SHT35;66279;42.820;23.374;2023-02-28T01:06:35;5.80;87.54
77247;SHT35;66279;42.820;23.374;2023-02-28T01:09:02;5.74;87.77
77247;SHT35;66279;42.820;23.374;2023-02-28T01:11:28;5.66;87.61
77247;SHT35;66279;42.820;23.374;2023-02-28T01:13:53;5.56;88.35
77247;SHT35;66279;42.820;23.374;2023-02-28T01:16:19;5.48;88.61
77247;SHT35;66279;42.820;23.374;2023-02-28T01:18:44;5.38;89.04
77247;SHT35;66279;42.820;23.374;2023-02-28T01:21:13;5.34;88.63
77247;SHT35;66279;42.820;23.374;2023-02-28T01:23:40;5.31;89.24
77247;SHT35;66279;42.820;23.374;2023-02-28T01:26:07;5.29;89.19
77247;SHT35;66279;42.820;23.374;2023-02-28T01:28:33;5.28;88.80
77247;SHT35;66279;42.820;23.374;2023-02-28T01:30:59;5.19;89.08
77247;SHT35;66279;42.820;23.374;2023-02-28T01:33:25;5.15;88.27
77247;SHT35;66279;42.820;23.374;2023-02-28T01:36:00;5.12;88.57
77247;SHT35;66279;42.820;23.374;2023-02-28T01:38:26;5.04;89.33
77247;SHT35;66279;42.820;23.374;2023-02-28T01:40:52;5.02;88.48
77247;SHT35;66279;42.820;23.374;2023-02-28T01:43:25;4.94;88.49
77247;SHT35;66279;42.820;23.374;2023-02-28T01:45:52;4.83;89.20
77247;SHT35;66279;42.820;23.374;2023-02-28T01:48:19;4.74;89.42
77247;SHT35;66279;42.820;23.374;2023-02-28T01:50:47;4.70;89.54
77247;SHT35;66279;42.820;23.374;2023-02-28T01:53:16;4.60;89.90
77247;SHT35;66279;42.820;23.374;2023-02-28T01:55:46;4.60;89.82
77247;SHT35;66279;42.820;23.374;2023-02-28T01:58:14;4.61;89.82
77247;SHT35;66279;42.820;23.374;2023-02-28T02:00:39;4.61;89.78
77247;SHT35;66279;42.820;23.374;2023-02-28T02:03:13;4.64;90.06
77247;SHT35;66279;42.820;23.374;2023-02-28T02:05:40;4.60;89.58
77247;SHT35;66279;42.820;23.374;2023-02-28T02:08:12;4.52;89.34
77247;SHT35;66279;42.820;23.374;2023-02-28T02:10:47;4.46;89.41
77247;SHT35;66279;42.820;23.374;2023-02-28T02:13:33;4.46;89.50
77247;SHT35;66279;42.820;23.374;2023-02-28T02:27:56;4.46;89.34
77247;SHT35;66279;42.820;23.374;2023-02-28T02:36:18;4.47;90.20
77247;SHT35;66279;42.820;23.374;2023-02-28T02:41:33;4.40;89.96
77247;SHT35;66279;42.820;23.374;2023-02-28T02:44:13;4.36;90.13
77247;SHT35;66279;42.820;23.374;2023-02-28T02:46:45;4.28;90.62
77247;SHT35;66279;42.820;23.374;2023-02-28T02:49:22;4.32;90.43
77247;SHT35;66279;42.820;23.374;2023-02-28T02:51:49;4.40;90.74
77247;SHT35;66279;42.820;23.374;2023-02-28T02:54:25;4.40;90.83
77247;SHT35;66279;42.820;23.374;2023-02-28T02:56:57;4.40;90.44
77247;SHT35;66279;42.820;23.374;2023-02-28T02:59:25;4.38;90.05
77247;SHT35;66279;42.820;23.374;2023-02-28T03:01:55;4.39;89.78
77247;SHT35;66279;42.820;23.374;2023-02-28T03:04:24;4.28;90.33
77247;SHT35;66279;42.820;23.374;2023-02-28T03:06:51;4.28;89.96
77247;SHT35;66279;42.820;23.374;2023-02-28T03:09:24;4.30;89.58
77247;SHT35;66279;42.820;23.374;2023-02-28T03:11:52;4.28;89.16
77247;SHT35;66279;42.820;23.374;2023-02-28T03:20:27;4.15;88.60
77247;SHT35;66279;42.820;23.374;2023-02-28T03:23:10;4.12;88.39
77247;SHT35;66279;42.820;23.374;2023-02-28T03:25:51;4.05;88.87
77247;SHT35;66279;42.820;23.374;2023-02-28T03:31:07;3.85;88.48
77247;SHT35;66279;42.820;23.374;2023-02-28T03:33:39;3.71;89.79
77247;SHT35;66279;42.820;23.374;2023-02-28T03:36:13;3.66;89.95
77247;SHT35;66279;42.820;23.374;2023-02-28T03:38:55;3.66;89.34
77247;SHT35;66279;42.820;23.374;2023-02-28T03:41:25;3.67;89.33
77247;SHT35;66279;42.820;23.374;2023-02-28T03:43:55;3.66;89.07
77247;SHT35;66279;42.820;23.374;2023-02-28T03:46:25;3.66;89.23
77247;SHT35;66279;42.820;23.374;2023-02-28T03:48:57;3.66;89.05
77247;SHT35;66279;42.820;23.374;2023-02-28T03:51:26;3.70;90.10
77247;SHT35;66279;42.820;23.374;2023-02-28T03:53:57;3.75;90.71
77247;SHT35;66279;42.820;23.374;2023-02-28T03:57:06;3.67;90.17
77247;SHT35;66279;42.820;23.374;2023-02-28T03:59:41;3.66;90.52
77247;SHT35;66279;42.820;23.374;2023-02-28T04:02:08;3.61;89.91
77247;SHT35;66279;42.820;23.374;2023-02-28T04:04:34;3.57;89.61
77247;SHT35;66279;42.820;23.374;2023-02-28T04:07:06;3.51;89.25
77247;SHT35;66279;42.820;23.374;2023-02-28T04:09:32;3.47;89.36
77247;SHT35;66279;42.820;23.374;2023-02-28T04:11:57;3.43;89.14
77247;SHT35;66279;42.820;23.374;2023-02-28T04:14:23;3.31;89.63
77247;SHT35;66279;42.820;23.374;2023-02-28T04:16:49;3.30;90.15
77247;SHT35;66279;42.820;23.374;2023-02-28T04:19:16;3.33;90.38
77247;SHT35;66279;42.820;23.374;2023-02-28T04:21:48;3.24;90.96
77247;SHT35;66279;42.820;23.374;2023-02-28T04:24:16;3.27;90.95
77247;SHT35;66279;42.820;23.374;2023-02-28T04:26:45;3.36;90.68
77247;SHT35;66279;42.820;23.374;2023-02-28T04:29:13;3.37;91.23
77247;SHT35;66279;42.820;23.374;2023-02-28T04:31:39;3.37;92.06
77247;SHT35;66279;42.820;23.374;2023-02-28T04:34:04;3.44;92.11
77247;SHT35;66279;42.820;23.374;2023-02-28T04:36:30;3.41;91.77
77247;SHT35;66279;42.820;23.374;2023-02-28T04:38:56;3.36;91.20
77247;SHT35;66279;42.820;23.374;2023-02-28T04:41:21;3.30;90.73
77247;SHT35;66279;42.820;23.374;2023-02-28T04:43:47;3.29;90.39
77247;SHT35;66279;42.820;23.374;2023-02-28T04:46:13;3.26;90.46
77247;SHT35;66279;42.820;23.374;2023-02-28T04:48:39;3.24;89.93
77247;SHT35;66279;42.820;23.374;2023-02-28T04:51:13;3.15;89.71
77247;SHT35;66279;42.820;23.374;2023-02-28T04:53:40;3.02;89.87
77247;SHT35;66279;42.820;23.374;2023-02-28T04:56:06;3.03;89.87
77247;SHT35;66279;42.820;23.374;2023-02-28T04:58:33;3.00;90.05
77247;SHT35;66279;42.820;23.374;2023-02-28T05:01:22;3.03;90.42
77247;SHT35;66279;42.820;23.374;2023-02-28T05:03:48;3.06;90.16
77247;SHT35;66279;42.820;23.374;2023-02-28T05:06:15;3.06;90.21
77247;SHT35;66279;42.820;23.374;2023-02-28T05:08:41;3.08;89.94
77247;SHT35;66279;42.820;23.374;2023-02-28T05:11:13;3.10;90.29
77247;SHT35;66279;42.820;23.374;2023-02-28T05:13:39;3.09;90.90
77247;SHT35;66279;42.820;23.374;2023-02-28T05:16:05;3.18;91.61
77247;SHT35;66279;42.820;23.374;2023-02-28T05:18:31;3.23;91.56
77247;SHT35;66279;42.820;23.374;2023-02-28T05:20:56;3.26;92.18
77247;SHT35;66279;42.820;23.374;2023-02-28T05:23:22;3.37;91.81
77247;SHT35;66279;42.820;23.374;2023-02-28T05:25:48;3.44;91.20
77247;SHT35;66279;42.820;23.374;2023-02-28T05:28:13;3.49;91.26
77247;SHT35;66279;42.820;23.374;2023-02-28T05:30:39;3.57;91.30
77247;SHT35;66279;42.820;23.374;2023-02-28T05:33:05;3.63;91.42
77247;SHT35;66279;42.820;23.374;2023-02-28T05:35:31;3.64;91.65
77247;SHT35;66279;42.820;23.374;2023-02-28T05:37:57;3.71;91.38
77247;SHT35;66279;42.820;23.374;2023-02-28T05:40:22;3.81;91.73
77247;SHT35;66279;42.820;23.374;2023-02-28T05:42:50;3.91;91.29
77247;SHT35;66279;42.820;23.374;2023-02-28T05:45:15;3.99;91.20
77247;SHT35;66279;42.820;23.374;2023-02-28T05:47:42;4.01;91.49
77247;SHT35;66279;42.820;23.374;2023-02-28T05:50:08;4.06;91.47
77247;SHT35;66279;42.820;23.374;2023-02-28T05:52:36;4.10;91.16
77247;SHT35;66279;42.820;23.374;2023-02-28T05:55:01;4.12;91.33
77247;SHT35;66279;42.820;23.374;2023-02-28T05:57:27;4.18;91.40
77247;SHT35;66279;42.820;23.374;2023-02-28T05:59:52;4.19;91.51
77247;SHT35;66279;42.820;23.374;2023-02-28T06:02:18;4.16;91.22
77247;SHT35;66279;42.820;23.374;2023-02-28T06:04:44;4.20;91.20
77247;SHT35;66279;42.820;23.374;2023-02-28T06:07:10;4.28;91.02
77247;SHT35;66279;42.820;23.374;2023-02-28T06:09:36;4.32;91.09
77247;SHT35;66279;42.820;23.374;2023-02-28T06:12:04;4.35;91.23
77247;SHT35;66279;42.820;23.374;2023-02-28T06:14:31;4.40;91.20
77247;SHT35;66279;42.820;23.374;2023-02-28T06:16:57;4.50;90.81
77247;SHT35;66279;42.820;23.374;2023-02-28T06:19:23;4.52;91.13
77247;SHT35;66279;42.820;23.374;2023-02-28T06:21:52;4.54;90.65
77247;SHT35;66279;42.820;23.374;2023-02-28T06:24:22;4.56;90.63
77247;SHT35;66279;42.820;23.374;2023-02-28T06:26:47;4.57;90.45
77247;SHT35;66279;42.820;23.374;2023-02-28T06:29:13;4.64;90.60
77247;SHT35;66279;42.820;23.374;2023-02-28T06:31:43;4.64;90.76
77247;SHT35;66279;42.820;23.374;2023-02-28T06:34:09;4.76;90.49
77247;SHT35;66279;42.820;23.374;2023-02-28T06:36:40;4.74;89.95
77247;SHT35;66279;42.820;23.374;2023-02-28T06:39:07;4.74;90.09
77247;SHT35;66279;42.820;23.374;2023-02-28T06:41:33;4.76;89.92
77247;SHT35;66279;42.820;23.374;2023-02-28T06:44:04;4.81;90.06
77247;SHT35;66279;42.820;23.374;2023-02-28T06:46:31;4.81;90.32
77247;SHT35;66279;42.820;23.374;2023-02-28T06:48:56;4.84;90.41
77247;SHT35;66279;42.820;23.374;2023-02-28T06:51:22;4.81;90.88
77247;SHT35;66279;42.820;23.374;2023-02-28T06:53:50;4.95;90.85
77247;SHT35;66279;42.820;23.374;2023-02-28T06:56:16;5.05;90.71
77247;SHT35;66279;42.820;23.374;2023-02-28T06:58:46;5.15;90.75
77247;SHT35;66279;42.820;23.374;2023-02-28T07:01:13;5.27;90.33
77247;SHT35;66279;42.820;23.374;2023-02-28T07:03:39;5.32;90.18
77247;SHT35;66279;42.820;23.374;2023-02-28T07:06:05;5.39;89.73
77247;SHT35;66279;42.820;23.374;2023-02-28T07:08:31;5.45;89.50
77247;SHT35;66279;42.820;23.374;2023-02-28T07:10:57;5.46;90.10
77247;SHT35;66279;42.820;23.374;2023-02-28T07:13:23;5.50;90.47
77247;SHT35;66279;42.820;23.374;2023-02-28T07:15:57;5.56;90.76
77247;SHT35;66279;42.820;23.374;2023-02-28T07:18:23;5.60;90.80
77247;SHT35;66279;42.820;23.374;2023-02-28T07:21:22;5.62;91.20
77247;SHT35;66279;42.820;23.374;2023-02-28T07:23:47;5.67;91.53
77247;SHT35;66279;42.820;23.374;2023-02-28T07:26:16;5.87;91.26
77247;SHT35;66279;42.820;23.374;2023-02-28T07:28:43;5.94;91.44
77247;SHT35;66279;42.820;23.374;2023-02-28T07:31:10;6.03;91.36
77247;SHT35;66279;42.820;23.374;2023-02-28T07:33:36;6.16;91.23
77247;SHT35;66279;42.820;23.374;2023-02-28T07:36:09;6.22;91.44
77247;SHT35;66279;42.820;23.374;2023-02-28T07:38:42;6.34;91.29
77247;SHT35;66279;42.820;23.374;2023-02-28T07:41:09;6.46;91.56
77247;SHT35;66279;42.820;23.374;2023-02-28T07:43:35;6.50;91.31
77247;SHT35;66279;42.820;23.374;2023-02-28T07:46:05;6.66;91.01
77247;SHT35;66279;42.820;23.374;2023-02-28T07:48:31;6.75;91.14
77247;SHT35;66279;42.820;23.374;2023-02-28T07:50:58;6.85;91.15
77247;SHT35;66279;42.820;23.374;2023-02-28T07:53:24;6.97;91.37
77247;SHT35;66279;42.820;23.374;2023-02-28T07:55:49;7.04;91.03
77247;SHT35;66279;42.820;23.374;2023-02-28T07:58:15;7.03;90.01
77247;SHT35;66279;42.820;23.374;2023-02-28T08:00:40;7.13;89.61
77247;SHT35;66279;42.820;23.374;2023-02-28T08:03:06;7.18;89.77
77247;SHT35;66279;42.820;23.374;2023-02-28T08:05:31;7.23;89.24
77247;SHT35;66279;42.820;23.374;2023-02-28T08:07:57;7.34;89.50
77247;SHT35;66279;42.820;23.374;2023-02-28T08:10:23;7.40;88.58
77247;SHT35;66279;42.820;23.374;2023-02-28T08:12:49;7.48;88.94
77247;SHT35;66279;42.820;23.374;2023-02-28T08:15:14;7.59;89.34
77247;SHT35;66279;42.820;23.374;2023-02-28T08:17:40;7.64;88.69
77247;SHT35;66279;42.820;23.374;2023-02-28T08:20:06;7.68;88.91
77247;SHT35;66279;42.820;23.374;2023-02-28T08:22:32;7.79;88.90
77247;SHT35;66279;42.820;23.374;2023-02-28T08:24:58;7.83;89.40
77247;SHT35;66279;42.820;23.374;2023-02-28T08:27:23;7.92;89.38
77247;SHT35;66279;42.820;23.374;2023-02-28T08:29:49;8.09;90.02
77247;SHT35;66279;42.820;23.374;2023-02-28T08:32:14;8.16;90.04
77247;SHT35;66279;42.820;23.374;2023-02-28T08:34:40;8.25;89.91
77247;SHT35;66279;42.820;23.374;2023-02-28T08:37:05;8.32;89.73
77247;SHT35;66279;42.820;23.374;2023-02-28T08:39:34;8.44;90.22
77247;SHT35;66279;42.820;23.374;2023-02-28T08:42:00;8.51;89.60
77247;SHT35;66279;42.820;23.374;2023-02-28T08:44:25;8.64;89.52
77247;SHT35;66279;42.820;23.374;2023-02-28T08:46:51;8.75;88.94
77247;SHT35;66279;42.820;23.374;2023-02-28T08:49:16;8.82;89.00
77247;SHT35;66279;42.820;23.374;2023-02-28T08:51:42;8.86;88.61
77247;SHT35;66279;42.820;23.374;2023-02-28T08:54:08;8.95;88.20
77247;SHT35;66279;42.820;23.374;2023-02-28T08:56:33;8.95;88.48
77247;SHT35;66279;42.820;23.374;2023-02-28T08:58:59;8.98;88.05
77247;SHT35;66279;42.820;23.374;2023-02-28T09:01:27;8.99;87.96
77247;SHT35;66279;42.820;23.374;2023-02-28T09:03:54;9.05;88.10
77247;SHT35;66279;42.820;23.374;2023-02-28T09:06:22;9.14;88.05
77247;SHT35;66279;42.820;23.374;2023-02-28T09:08:49;9.20;87.46
77247;SHT35;66279;42.820;23.374;2023-02-28T09:11:15;9.33;87.26
77247;SHT35;66279;42.820;23.374;2023-02-28T09:13:41;9.37;86.70
77247;SHT35;66279;42.820;23.374;2023-02-28T09:16:09;9.43;86.75
77247;SHT35;66279;42.820;23.374;2023-02-28T09:18:37;9.44;86.60
77247;SHT35;66279;42.820;23.374;2023-02-28T09:21:10;9.48;86.83
77247;SHT35;66279;42.820;23.374;2023-02-28T09:23:38;9.61;86.55
77247;SHT35;66279;42.820;23.374;2023-02-28T09:26:05;9.69;86.07
77247;SHT35;66279;42.820;23.374;2023-02-28T09:28:30;9.74;85.86
77247;SHT35;66279;42.820;23.374;2023-02-28T09:30:56;9.87;86.10
77247;SHT35;66279;42.820;23.374;2023-02-28T09:33:24;9.87;84.96
77247;SHT35;66279;42.820;23.374;2023-02-28T09:35:50;9.87;84.81
77247;SHT35;66279;42.820;23.374;2023-02-28T09:38:17;9.84;85.05
77247;SHT35;66279;42.820;23.374;2023-02-28T09:40:54;9.90;85.21
77247;SHT35;66279;42.820;23.374;2023-02-28T09:43:23;9.99;84.30
77247;SHT35;66279;42.820;23.374;2023-02-28T09:45:56;9.98;84.00
77247;SHT35;66279;42.820;23.374;2023-02-28T09:48:29;10.09;83.86
77247;SHT35;66279;42.820;23.374;2023-02-28T09:51:03;10.08;82.91
77247;SHT35;66279;42.820;23.374;2023-02-28T09:53:32;10.14;83.58
77247;SHT35;66279;42.820;23.374;2023-02-28T09:56:05;10.29;83.18
77247;SHT35;66279;42.820;23.374;2023-02-28T09:58:41;10.32;81.99
77247;SHT35;66279;42.820;23.374;2023-02-28T10:01:25;10.33;81.90
77247;SHT35;66279;42.820;23.374;2023-02-28T10:03:59;10.43;82.36
77247;SHT35;66279;42.820;23.374;2023-02-28T10:06:30;10.46;81.54
77247;SHT35;66279;42.820;23.374;2023-02-28T10:11:27;10.67;81.10
77247;SHT35;66279;42.820;23.374;2023-02-28T10:16:48;10.73;80.96
77247;SHT35;66279;42.820;23.374;2023-02-28T10:22:36;10.85;80.58
77247;SHT35;66279;42.820;23.374;2023-02-28T10:25:22;11.01;79.84
77247;SHT35;66279;42.820;23.374;2023-02-28T10:27:48;11.07;78.54
77247;SHT35;66279;42.820;23.374;2023-02-28T10:30:14;11.18;78.02
77247;SHT35;66279;42.820;23.374;2023-02-28T10:32:44;11.42;79.16
77247;SHT35;66279;42.820;23.374;2023-02-28T10:35:24;11.48;78.50
77247;SHT35;66279;42.820;23.374;2023-02-28T10:37:56;11.34;76.50
77247;SHT35;66279;42.820;23.374;2023-02-28T10:45:37;11.63;76.03
77247;SHT35;66279;42.820;23.374;2023-02-28T10:48:05;11.79;75.88
77247;SHT35;66279;42.820;23.374;2023-02-28T10:58:26;12.19;74.93
77247;SHT35;66279;42.820;23.374;2023-02-28T11:00:52;12.19;74.60
77247;SHT35;66279;42.820;23.374;2023-02-28T11:03:36;12.24;73.93
77247;SHT35;66279;42.820;23.374;2023-02-28T11:06:07;12.12;75.31
77247;SHT35;66279;42.820;23.374;2023-02-28T11:08:34;12.16;75.17
77247;SHT35;66279;42.820;23.374;2023-02-28T11:11:04;12.21;74.88
77247;SHT35;66279;42.820;23.374;2023-02-28T11:13:33;12.19;74.98
77247;SHT35;66279;42.820;23.374;2023-02-28T11:16:03;12.24;74.81
77247;SHT35;66279;42.820;23.374;2023-02-28T11:18:37;12.40;73.26
77247;SHT35;66279;42.820;23.374;2023-02-28T11:21:04;12.33;73.78
77247;SHT35;66279;42.820;23.374;2023-02-28T11:23:32;12.42;74.90
77247;SHT35;66279;42.820;23.374;2023-02-28T11:26:01;12.54;73.46
77247;SHT35;66279;42.820;23.374;2023-02-28T22:15:17;6.56;76.28
77247;SHT35;66279;42.820;23.374;2023-02-28T22:17:42;6.50;76.75
77247;SHT35;66279;42.820;23.374;2023-02-28T22:20:09;6.49;77.08
77247;SHT35;66279;42.820;23.374;2023-02-28T22:22:35;6.52;76.82
77247;SHT35;66279;42.820;23.374;2023-02-28T22:25:00;6.52;76.72
77247;SHT35;66279;42.820;23.374;2023-02-28T22:27:26;6.50;77.09
77247;SHT35;66279;42.820;23.374;2023-02-28T22:29:54;6.49;77.06
77247;SHT35;66279;42.820;23.374;2023-02-28T22:32:20;6.48;77.54
77247;SHT35;66279;42.820;23.374;2023-02-28T22:34:49;6.49;77.53
77247;SHT35;66279;42.820;23.374;2023-02-28T22:37:15;6.45;77.39
77247;SHT35;66279;42.820;23.374;2023-02-28T22:39:40;6.41;78.56
77247;SHT35;66279;42.820;23.374;2023-02-28T22:42:06;6.45;78.08
77247;SHT35;66279;42.820;23.374;2023-02-28T22:44:31;6.45;78.33
77247;SHT35;66279;42.820;23.374;2023-02-28T22:46:57;6.44;78.53
77247;SHT35;66279;42.820;23.374;2023-02-28T22:49:22;6.32;78.44
77247;SHT35;66279;42.820;23.374;2023-02-28T22:51:49;6.37;78.49
77247;SHT35;66279;42.820;23.374;2023-02-28T22:54:15;6.29;78.93
77247;SHT35;66279;42.820;23.374;2023-02-28T22:56:41;6.34;79.16
77247;SHT35;66279;42.820;23.374;2023-02-28T22:59:09;6.34;78.95
77247;SHT35;66279;42.820;23.374;2023-02-28T23:01:36;6.37;78.97
77247;SHT35;66279;42.820;23.374;2023-02-28T23:04:02;6.29;79.62
77247;SHT35;66279;42.820;23.374;2023-02-28T23:06:37;6.24;79.24
77247;SHT35;66279;42.820;23.374;2023-02-28T23:09:09;6.24;79.44
77247;SHT35;66279;42.820;23.374;2023-02-28T23:11:40;6.25;79.26
77247;SHT35;66279;42.820;23.374;2023-02-28T23:14:07;6.27;79.10
77247;SHT35;66279;42.820;23.374;2023-02-28T23:16:44;6.34;79.08
77247;SHT35;66279;42.820;23.374;2023-02-28T23:19:13;6.28;79.74
77247;SHT35;66279;42.820;23.374;2023-02-28T23:21:40;6.24;79.71
77247;SHT35;66279;42.820;23.374;2023-02-28T23:24:08;6.24;79.20
77247;SHT35;66279;42.820;23.374;2023-02-28T23:26:38;6.27;78.96
77247;SHT35;66279;42.820;23.374;2023-02-28T23:29:04;6.20;79.50
77247;SHT35;66279;42.820;23.374;2023-02-28T23:31:31;6.20;79.31
77247;SHT35;66279;42.820;23.374;2023-02-28T23:33:56;6.21;79.69
77247;SHT35;66279;42.820;23.374;2023-02-28T23:36:23;6.21;79.27
77247;SHT35;66279;42.820;23.374;2023-02-28T23:38:50;6.20;78.68
77247;SHT35;66279;42.820;23.374;2023-02-28T23:41:17;6.17;78.64
77247;SHT35;66279;42.820;23.374;2023-02-28T23:43:43;6.18;79.00
77247;SHT35;66279;42.820;23.374;2023-02-28T23:46:10;6.16;78.97
77247;SHT35;66279;42.820;23.374;2023-02-28T23:48:36;6.14;78.68
77247;SHT35;66279;42.820;23.374;2023-02-28T23:51:07;6.10;79.30
77247;SHT35;66279;42.820;23.374;2023-02-28T23:53:34;6.14;78.64
77247;SHT35;66279;42.820;23.374;2023-02-28T23:56:00;6.18;78.77
77247;SHT35;66279;42.820;23.374;2023-02-28T23:58:28;6.21;78.62
